Terminal Aerodrome Forecast
Issued by NWS

Home | Current Version | Previous Version | Text Only | Print | Product List | Glossary On
Versions: 1 2 3 4 5 6 7 8 9 10 11 12 13 14 15 16
000
FTUS43 KPAH 302342
TAFCGI
TAF
KCGI 302342Z 0100/0124 27008KT P6SM BKN050
     FM010100 23002KT P6SM BKN050
     FM010900 34004KT P6SM BKN100
     FM012100 17006KT P6SM BKN100=

USA.gov is the U.S. government's official web portal to all federal, state and local government web resources and services.